createdAt,value
2022-11-22T00:00:52.548Z,94093.97
2022-11-22T00:03:20.235Z,94095.28
2022-11-22T00:05:47.926Z,94093.41
2022-11-22T00:08:15.674Z,94097.63
2022-11-22T00:10:43.632Z,94089.31
2022-11-22T00:13:11.399Z,94088.47
2022-11-22T00:15:40.694Z,94087.13
2022-11-22T00:18:08.777Z,94087.47
2022-11-22T00:20:36.617Z,94079.59
2022-11-22T00:23:04.769Z,94084.09
2022-11-22T00:25:32.456Z,94085.31
2022-11-22T00:28:00.097Z,94082.19
2022-11-22T00:30:27.759Z,94076.97
2022-11-22T00:32:56.772Z,94071.56
2022-11-22T00:35:24.529Z,94073.69
2022-11-22T00:37:52.248Z,94078.34
2022-11-22T00:40:20.212Z,94083.31
2022-11-22T00:42:47.937Z,94084.75
2022-11-22T00:45:15.651Z,94096.25
2022-11-22T00:47:43.348Z,94098.50
2022-11-22T00:50:12.404Z,94101.22
2022-11-22T00:52:40.171Z,94111.59
2022-11-22T00:55:08.827Z,94113.59
2022-11-22T00:57:36.444Z,94106.00
2022-11-22T01:00:05.279Z,94102.09
2022-11-22T01:02:36.081Z,94108.09
2022-11-22T01:05:03.789Z,94108.69
2022-11-22T01:07:32.913Z,94107.94
2022-11-22T01:10:00.697Z,94112.16
2022-11-22T01:12:28.409Z,94119.84
2022-11-22T01:14:56.165Z,94113.38
2022-11-22T01:17:23.835Z,94106.03
2022-11-22T01:19:51.493Z,94103.81
2022-11-22T01:22:19.231Z,94101.69
2022-11-22T01:24:48.330Z,94109.75
2022-11-22T01:27:16.038Z,94103.03
2022-11-22T01:29:43.808Z,94092.59
2022-11-22T01:32:11.526Z,94088.19
2022-11-22T01:34:39.168Z,94087.53
2022-11-22T01:37:06.899Z,94079.78
2022-11-22T01:39:34.579Z,94078.38
2022-11-22T01:42:03.845Z,94075.31
2022-11-22T01:44:34.858Z,94076.69
2022-11-22T01:47:08.788Z,94076.94
2022-11-22T01:49:41.174Z,94073.00
2022-11-22T01:52:14.477Z,94080.75
2022-11-22T01:54:45.752Z,94072.94
2022-11-22T01:57:18.332Z,94067.44
2022-11-22T01:59:51.593Z,94069.97
2022-11-22T02:02:19.583Z,94068.38
2022-11-22T02:04:48.253Z,94076.50
2022-11-22T02:07:22.455Z,94078.13
2022-11-22T02:09:53.467Z,94075.66
2022-11-22T02:12:27.886Z,94075.88
2022-11-22T02:14:56.285Z,94081.72
2022-11-22T02:17:26.401Z,94079.69
2022-11-22T02:19:54.628Z,94068.84
2022-11-22T02:22:31.579Z,94088.38
2022-11-22T02:25:07.271Z,94088.22
2022-11-22T02:27:36.315Z,94086.69
2022-11-22T02:30:04.363Z,94078.13
2022-11-22T02:32:32.054Z,94081.72
2022-11-22T02:34:59.692Z,94072.28
2022-11-22T02:37:31.373Z,94074.97
2022-11-22T02:40:03.106Z,94084.75
2022-11-22T02:42:32.295Z,94088.47
2022-11-22T02:45:01.347Z,94084.63
2022-11-22T02:47:29.085Z,94080.72
2022-11-22T02:49:56.760Z,94082.06
2022-11-22T02:52:24.501Z,94088.63
2022-11-22T02:54:52.166Z,94087.38
2022-11-22T02:57:19.842Z,94084.75
2022-11-22T02:59:47.483Z,94087.69
2022-11-22T03:02:16.662Z,94088.16
2022-11-22T03:04:44.305Z,94092.91
2022-11-22T03:07:12.079Z,94095.72
2022-11-22T03:09:39.770Z,94098.34
2022-11-22T03:12:07.651Z,94103.03
2022-11-22T03:14:35.331Z,94068.22
2022-11-22T03:17:03.023Z,94070.84
2022-11-22T03:19:32.970Z,94081.78
2022-11-22T03:22:00.829Z,94075.81
2022-11-22T03:24:28.512Z,94094.56
2022-11-22T03:26:56.308Z,94099.16
2022-11-22T03:29:24.005Z,94098.09
2022-11-22T03:31:51.757Z,94106.88
2022-11-22T03:34:19.529Z,94107.69
2022-11-22T03:36:48.538Z,94110.56
2022-11-22T03:39:16.357Z,94109.50
2022-11-22T03:41:44.131Z,94116.47
2022-11-22T03:44:11.846Z,94105.25
2022-11-22T03:46:39.556Z,94117.66
2022-11-22T03:49:07.320Z,94117.19
2022-11-22T03:51:35.051Z,94115.09
2022-11-22T03:54:04.181Z,94116.31
2022-11-22T03:56:31.893Z,94119.63
2022-11-22T03:58:59.692Z,94097.72
2022-11-22T04:01:27.454Z,94119.63
2022-11-22T04:03:55.126Z,94107.94
2022-11-22T04:06:22.845Z,94130.19
2022-11-22T04:08:50.862Z,94121.69
2022-11-22T04:11:22.264Z,94123.69
2022-11-22T04:14:07.409Z,94120.59
2022-11-22T04:16:35.080Z,94120.72
2022-11-22T04:19:02.707Z,94118.75
2022-11-22T04:21:35.252Z,94123.81
2022-11-22T04:24:21.761Z,94121.47
2022-11-22T04:26:51.177Z,94121.19
2022-11-22T04:29:20.034Z,94123.50
2022-11-22T04:32:05.340Z,94118.59
2022-11-22T04:34:33.316Z,94118.09
2022-11-22T04:37:01.294Z,94125.06
2022-11-22T04:39:29.518Z,94121.19
2022-11-22T04:42:12.633Z,94133.78
2022-11-22T04:44:43.593Z,94131.47
2022-11-22T04:47:12.450Z,94123.22
2022-11-22T04:49:40.245Z,94052.03
2022-11-22T04:52:36.998Z,94133.41
2022-11-22T04:55:05.189Z,94137.09
2022-11-22T04:57:34.169Z,94132.94
2022-11-22T05:00:01.852Z,94129.72
2022-11-22T05:02:29.530Z,94128.94
2022-11-22T05:04:57.430Z,94132.63
2022-11-22T05:07:25.183Z,94134.75
2022-11-22T05:09:52.876Z,94125.84
2022-11-22T05:12:20.574Z,94135.31
2022-11-22T05:14:49.563Z,94142.50
2022-11-22T05:17:17.300Z,94140.94
2022-11-22T05:19:49.196Z,94143.06
2022-11-22T05:22:17.631Z,94144.25
2022-11-22T05:24:44.335Z,94149.56
2022-11-22T05:27:11.983Z,94154.31
2022-11-22T05:29:39.607Z,94153.16
2022-11-22T05:32:08.588Z,94154.31
2022-11-22T05:34:36.388Z,94160.91
2022-11-22T05:37:04.036Z,94154.91
2022-11-22T05:39:31.971Z,94164.59
2022-11-22T05:41:59.846Z,94166.16
2022-11-22T05:44:27.548Z,94166.94
2022-11-22T05:46:55.225Z,94163.03
2022-11-22T05:49:24.268Z,94160.25
2022-11-22T05:51:52.595Z,94158.78
2022-11-22T05:54:20.247Z,94148.91
2022-11-22T05:56:48.488Z,94159.19
2022-11-22T05:59:16.191Z,94157.03
2022-11-22T06:01:43.899Z,94141.06
2022-11-22T06:04:11.537Z,94164.41
2022-11-22T06:06:40.591Z,94161.78
2022-11-22T06:09:08.296Z,94165.00
2022-11-22T06:11:36.309Z,94164.78
2022-11-22T06:14:04.171Z,94160.72
2022-11-22T06:16:32.311Z,94163.13
2022-11-22T06:19:00.031Z,94164.88
2022-11-22T06:21:28.583Z,94162.47
2022-11-22T06:23:57.936Z,94162.66
2022-11-22T06:26:26.336Z,94165.06
2022-11-22T06:28:55.323Z,94172.91
2022-11-22T06:31:24.478Z,94171.00
2022-11-22T06:33:53.783Z,94088.47
2022-11-22T06:36:23.488Z,94154.72
2022-11-22T06:38:51.642Z,94180.88
2022-11-22T06:41:22.211Z,94184.94
2022-11-22T06:43:51.724Z,94188.16
2022-11-22T06:46:20.499Z,94190.66
2022-11-22T06:48:48.196Z,94200.25
2022-11-22T06:51:19.642Z,94202.00
2022-11-22T06:53:49.006Z,94193.94
2022-11-22T06:56:18.869Z,94209.25
2022-11-22T06:58:49.095Z,94209.25
2022-11-22T07:01:19.172Z,94216.44
2022-11-22T07:03:47.701Z,94216.75
2022-11-22T07:06:17.053Z,94219.72
2022-11-22T07:08:45.327Z,94150.53
2022-11-22T07:11:14.654Z,94235.34
2022-11-22T07:13:43.099Z,94237.88
2022-11-22T07:16:14.372Z,94247.84
2022-11-22T07:18:42.151Z,94243.09
2022-11-22T07:21:13.504Z,94241.75
2022-11-22T07:23:43.331Z,94246.31
2022-11-22T07:26:11.821Z,94247.75
2022-11-22T07:28:39.634Z,94217.50
2022-11-22T07:31:08.820Z,94251.91
2022-11-22T07:33:38.173Z,94257.06
2022-11-22T07:36:07.405Z,94249.41
2022-11-22T07:38:35.342Z,94258.72
2022-11-22T07:41:03.555Z,94266.56
2022-11-22T07:43:31.547Z,94273.75
2022-11-22T07:46:00.092Z,94280.69
2022-11-22T07:48:27.962Z,94276.91
2022-11-22T07:50:57.084Z,94279.53
2022-11-22T07:53:24.732Z,94268.19
2022-11-22T07:55:52.364Z,94288.06
2022-11-22T07:58:20.307Z,94294.00
2022-11-22T08:00:47.963Z,94283.03
2022-11-22T08:03:17.829Z,94245.97
2022-11-22T08:05:45.982Z,94301.09
2022-11-22T08:08:15.018Z,94243.16
2022-11-22T08:10:42.663Z,94293.31
2022-11-22T08:13:10.288Z,94308.63
2022-11-22T08:15:37.941Z,94297.78
2022-11-22T08:18:05.659Z,94311.72
2022-11-22T08:20:33.284Z,94317.56
2022-11-22T08:23:00.958Z,94319.69
2022-11-22T08:25:29.918Z,94328.81
2022-11-22T08:27:57.636Z,94320.84
2022-11-22T08:30:25.355Z,94332.97
2022-11-22T08:32:55.842Z,94338.41
2022-11-22T08:35:23.529Z,94320.47
2022-11-22T08:37:51.195Z,94319.31
2022-11-22T08:40:19.035Z,94328.13
2022-11-22T08:42:48.037Z,94358.88
2022-11-22T08:45:15.743Z,94351.31
2022-11-22T08:47:43.483Z,94353.66
2022-11-22T08:50:11.267Z,94360.91
2022-11-22T08:52:38.912Z,94355.69
2022-11-22T08:55:07.621Z,94367.31
2022-11-22T08:57:35.330Z,94367.31
2022-11-22T09:00:05.550Z,94363.94
2022-11-22T09:02:33.229Z,94369.25
2022-11-22T09:05:00.863Z,94352.69
2022-11-22T09:10:17.284Z,94378.69
2022-11-22T09:12:45.574Z,94361.81
2022-11-22T09:15:15.696Z,94378.41
2022-11-22T09:17:43.402Z,94388.50
2022-11-22T09:20:12.246Z,94384.50
2022-11-22T09:22:39.977Z,94395.94
2022-11-22T09:25:08.341Z,94394.31
2022-11-22T09:27:36.646Z,94394.97
2022-11-22T09:30:05.224Z,94396.38
2022-11-22T09:32:34.234Z,94398.88
2022-11-22T09:35:01.840Z,94406.25
2022-11-22T09:37:29.481Z,94410.03
2022-11-22T09:39:57.099Z,94395.94
2022-11-22T09:42:43.304Z,94413.25
2022-11-22T09:45:34.422Z,94416.63
2022-11-22T09:48:17.590Z,94420.81
2022-11-22T09:50:53.556Z,94418.47
2022-11-22T09:53:25.852Z,94411.09
2022-11-22T09:55:57.044Z,94405.09
2022-11-22T09:58:30.802Z,94415.28
2022-11-22T10:01:05.299Z,94420.94
2022-11-22T10:03:45.393Z,94402.84
2022-11-22T10:06:19.527Z,94431.69
2022-11-22T10:08:58.608Z,94429.28
2022-11-22T10:11:36.751Z,94420.69
2022-11-22T10:14:13.278Z,94424.31
2022-11-22T10:16:46.341Z,94419.28
2022-11-22T10:19:21.756Z,94420.41
2022-11-22T10:21:49.493Z,94398.28
2022-11-22T10:24:19.695Z,94415.75
2022-11-22T10:26:47.841Z,94412.66
2022-11-22T10:29:27.843Z,94412.66
2022-11-22T10:32:03.650Z,94397.13
2022-11-22T10:34:46.684Z,94418.50
2022-11-22T10:37:22.435Z,94416.22
2022-11-22T10:40:09.093Z,94412.94
2022-11-22T10:43:03.687Z,94419.72
2022-11-22T10:45:36.332Z,94412.75
2022-11-22T10:48:14.329Z,94403.63
2022-11-22T10:50:55.256Z,94405.47
2022-11-22T10:53:32.188Z,94399.19
2022-11-22T10:56:09.907Z,94379.56
2022-11-22T10:58:46.319Z,94402.47
2022-11-22T11:01:21.582Z,94357.72
2022-11-22T11:03:52.184Z,94396.28
2022-11-22T11:06:43.549Z,94403.53
2022-11-22T11:10:09.174Z,94385.19
2022-11-22T11:12:16.333Z,94407.53
2022-11-22T11:14:48.094Z,94400.63
2022-11-22T11:17:19.496Z,94415.09
2022-11-22T11:19:49.510Z,94416.84
2022-11-22T11:22:42.713Z,94417.91
2022-11-22T11:25:34.328Z,94407.72
2022-11-22T11:28:06.428Z,94418.31
2022-11-22T11:30:43.357Z,94333.88
2022-11-22T11:33:19.462Z,94404.13
2022-11-22T11:35:47.551Z,94406.25
2022-11-22T11:38:35.171Z,94412.28
2022-11-22T11:41:21.901Z,94411.41
2022-11-22T11:43:50.832Z,94395.59
2022-11-22T11:46:20.645Z,94384.19
2022-11-22T11:48:49.067Z,94414.59
2022-11-22T11:51:21.562Z,94404.50
2022-11-22T11:53:58.361Z,94401.69
2022-11-22T11:56:33.575Z,94400.22
2022-11-22T11:59:08.037Z,94402.16
2022-11-22T12:01:39.160Z,94382.53
2022-11-22T12:04:17.052Z,94402.25
2022-11-22T12:06:58.749Z,94391.09
2022-11-22T12:09:34.460Z,94388.38
2022-11-22T12:12:23.364Z,94398.94
2022-11-22T12:15:10.684Z,94386.03
2022-11-22T12:17:49.896Z,94390.50
2022-11-22T12:20:22.755Z,94384.59
2022-11-22T12:23:03.955Z,94404.41
2022-11-22T12:25:37.926Z,94391.88
2022-11-22T12:28:16.730Z,94397.72
2022-11-22T12:30:47.284Z,94404.00
2022-11-22T12:33:21.965Z,94378.09
2022-11-22T12:35:51.601Z,94396.81
2022-11-22T12:38:23.835Z,94400.91
2022-11-22T12:40:57.567Z,94396.06
2022-11-22T12:43:29.007Z,94393.81
2022-11-22T12:46:00.233Z,94387.13
2022-11-22T12:48:34.410Z,94354.50
2022-11-22T12:51:07.490Z,94382.84
2022-11-22T12:53:37.838Z,94377.69
2022-11-22T12:56:18.767Z,94354.22
2022-11-22T12:58:56.057Z,94370.72
2022-11-22T13:01:29.965Z,94367.41
2022-11-22T13:04:04.442Z,94355.59
2022-11-22T13:06:41.373Z,94370.06
2022-11-22T13:09:15.109Z,94334.03
2022-11-22T13:11:51.124Z,94347.03
2022-11-22T13:14:23.671Z,94373.84
2022-11-22T13:16:51.733Z,94374.31
2022-11-22T13:19:24.401Z,94372.88
2022-11-22T13:22:08.936Z,94372.38
2022-11-22T13:24:51.105Z,94356.75
2022-11-22T13:27:26.396Z,94390.34
2022-11-22T13:29:57.719Z,94368.78
2022-11-22T13:32:29.053Z,94373.53
2022-11-22T13:35:07.725Z,94352.28
2022-11-22T13:37:39.171Z,94372.69
2022-11-22T13:40:11.813Z,94373.06
2022-11-22T13:42:40.953Z,94344.06
2022-11-22T13:45:21.832Z,94375.88
2022-11-22T13:47:50.234Z,94352.97
2022-11-22T13:50:56.132Z,94380.44
2022-11-22T13:53:27.182Z,94370.94
2022-11-22T13:55:55.016Z,94388.78
2022-11-22T13:58:55.905Z,94390.81
2022-11-22T14:01:58.094Z,94396.75
2022-11-22T14:04:38.287Z,94389.06
2022-11-22T14:07:28.452Z,94399.16
2022-11-22T14:09:58.215Z,94394.78
2022-11-22T14:13:11.105Z,94394.19
2022-11-22T14:15:52.599Z,94393.50
2022-11-22T14:18:55.556Z,94392.66
2022-11-22T14:21:47.427Z,94397.28
2022-11-22T14:24:29.792Z,94403.59
2022-11-22T14:27:04.937Z,94408.38
2022-11-22T14:30:02.443Z,94410.28
2022-11-22T14:32:48.282Z,94413.31
2022-11-22T14:35:29.178Z,94416.00
2022-11-22T14:38:03.532Z,94403.28
2022-11-22T14:40:35.413Z,94347.31
2022-11-22T14:43:07.120Z,94423.06
2022-11-22T14:45:43.748Z,94389.38
2022-11-22T14:48:23.721Z,94419.56
2022-11-22T14:50:56.175Z,94430.31
2022-11-22T14:53:35.843Z,94437.31
2022-11-22T14:56:13.455Z,94440.31
2022-11-22T14:58:59.730Z,94439.13
2022-11-22T15:01:49.114Z,94436.47
2022-11-22T15:09:11.235Z,94408.44
2022-11-22T15:09:14.916Z,94432.94
2022-11-22T15:11:08.575Z,94437.47
2022-11-22T15:14:01.677Z,94438.25
2022-11-22T15:57:27.296Z,94461.34
2022-11-22T15:59:56.813Z,94430.59
2022-11-22T16:02:27.619Z,94488.56
2022-11-22T16:06:03.607Z,94305.47
2022-11-22T16:07:49.253Z,94420.31
2022-11-22T16:10:22.012Z,94468.53
2022-11-22T16:12:50.717Z,94456.81
2022-11-22T16:15:35.863Z,94396.66
2022-11-22T16:18:15.839Z,94474.91
2022-11-22T16:20:43.847Z,94485.63
2022-11-22T16:23:25.244Z,94484.09
2022-11-22T16:25:58.636Z,94491.44
2022-11-22T16:28:32.214Z,94485.72
2022-11-22T16:31:02.205Z,94486.06
2022-11-22T16:33:30.618Z,94494.16
2022-11-22T16:36:00.069Z,94496.28
2022-11-22T16:38:28.760Z,94486.41
2022-11-22T16:41:02.705Z,94488.72
2022-11-22T16:43:41.919Z,94485.09
2022-11-22T16:46:15.875Z,94480.59
2022-11-22T16:48:44.387Z,94474.44
2022-11-22T16:51:15.194Z,94490.06
2022-11-22T16:53:45.110Z,94499.16
2022-11-22T16:56:19.946Z,94468.22
2022-11-22T16:58:48.709Z,94491.91
2022-11-22T17:01:18.917Z,94497.41
2022-11-22T17:03:48.173Z,94503.63
2022-11-22T17:06:18.498Z,94508.22
2022-11-22T17:08:46.821Z,94511.06
2022-11-22T17:11:16.523Z,94505.13
2022-11-22T17:13:46.104Z,94510.00
2022-11-22T17:16:15.127Z,94509.50
2022-11-22T17:18:42.781Z,94495.00
2022-11-22T17:21:17.725Z,94509.50
2022-11-22T17:23:45.948Z,94508.88
2022-11-22T17:26:13.622Z,94506.81
2022-11-22T17:28:41.299Z,94508.63
2022-11-22T17:31:13.807Z,94505.06
2022-11-22T17:33:41.684Z,94502.19
2022-11-22T17:36:20.915Z,94512.09
2022-11-22T17:38:49.311Z,94497.56
2022-11-22T17:41:17.395Z,94509.53
2022-11-22T17:43:45.344Z,94509.03
2022-11-22T17:46:14.453Z,94511.16
2022-11-22T17:48:42.126Z,94516.44
2022-11-22T17:51:11.299Z,94511.19
2022-11-22T17:53:39.644Z,94504.53
2022-11-22T17:56:10.866Z,94511.81
2022-11-22T17:58:39.519Z,94509.22
2022-11-22T18:01:08.636Z,94510.31
2022-11-22T18:03:38.107Z,94519.66
2022-11-22T18:06:06.104Z,94512.84
2022-11-22T18:08:34.509Z,94503.03
2022-11-22T18:11:02.821Z,94514.44
2022-11-22T18:13:32.150Z,94519.66
2022-11-22T18:16:03.721Z,94520.69
2022-11-22T18:21:20.971Z,94518.41
2022-11-22T18:23:48.765Z,94528.41
2022-11-22T18:26:39.393Z,94521.41
2022-11-22T18:31:53.174Z,94527.63
2022-11-22T18:34:21.629Z,94528.69
2022-11-22T18:37:06.768Z,94524.03
2022-11-22T18:39:37.353Z,94524.28
2022-11-22T18:42:07.049Z,94530.31
2022-11-22T18:44:35.268Z,94528.50
2022-11-22T18:47:03.002Z,94535.06
2022-11-22T18:49:31.233Z,94542.84
2022-11-22T18:52:00.740Z,94536.41
2022-11-22T18:54:28.740Z,94547.06
2022-11-22T18:56:56.644Z,94550.50
2022-11-22T18:59:24.317Z,94556.50
2022-11-22T19:01:52.025Z,94551.84
2022-11-22T19:04:19.693Z,94548.25
2022-11-22T19:06:49.185Z,94559.34
2022-11-22T19:09:18.387Z,94565.16
2022-11-22T19:11:46.149Z,94574.53
2022-11-22T19:14:13.961Z,94565.72
2022-11-22T19:16:42.022Z,94562.34
2022-11-22T19:19:11.838Z,94563.59
2022-11-22T19:21:39.527Z,94556.38
2022-11-22T19:24:07.498Z,94566.56
2022-11-22T19:26:54.771Z,94545.19
2022-11-22T19:29:22.836Z,94519.81
2022-11-22T19:31:50.544Z,94567.66
2022-11-22T19:34:18.288Z,94559.25
2022-11-22T19:36:45.973Z,94560.28
2022-11-22T19:39:15.689Z,94562.66
2022-11-22T19:41:45.804Z,94560.91
2022-11-22T19:44:13.535Z,94568.69
2022-11-22T19:46:41.543Z,94573.41
2022-11-22T19:49:10.058Z,94566.06
2022-11-22T19:51:41.053Z,94575.97
2022-11-22T19:54:08.873Z,94573.63
2022-11-22T19:56:38.473Z,94580.44
2022-11-22T19:59:10.303Z,94552.81
2022-11-22T20:01:39.646Z,94582.97
2022-11-22T20:04:07.503Z,94592.13
2022-11-22T20:06:36.617Z,94574.22
2022-11-22T20:09:09.137Z,94583.09
2022-11-22T20:11:37.705Z,94580.25
2022-11-22T20:14:07.063Z,94587.53
2022-11-22T20:16:35.537Z,94588.88
2022-11-22T20:19:05.095Z,94581.31
2022-11-22T20:21:34.202Z,94583.94
2022-11-22T20:24:03.305Z,94585.03
2022-11-22T20:26:32.876Z,94581.88
2022-11-22T20:29:02.169Z,94578.00
2022-11-22T20:31:33.425Z,94587.91
2022-11-22T20:34:01.829Z,94588.19
2022-11-22T20:36:31.466Z,94587.69
2022-11-22T20:39:02.796Z,94591.84
2022-11-22T20:41:33.285Z,94597.31
2022-11-22T20:44:01.596Z,94586.38
2022-11-22T20:46:30.993Z,94593.72
2022-11-22T20:48:58.948Z,94594.53
2022-11-22T20:51:28.485Z,94594.81
2022-11-22T20:53:56.922Z,94600.78
2022-11-22T20:56:25.189Z,94584.41
2022-11-22T20:58:53.411Z,94607.06
2022-11-22T21:01:23.091Z,94608.56
2022-11-22T21:03:53.268Z,94605.94
2022-11-22T21:06:23.394Z,94612.13
2022-11-22T21:08:51.085Z,94615.44
2022-11-22T21:11:20.524Z,94606.78
2022-11-22T21:13:48.916Z,94612.56
2022-11-22T21:16:25.729Z,94615.19
2022-11-22T21:18:56.395Z,94617.31
2022-11-22T21:21:26.039Z,94615.78
2022-11-22T21:23:55.509Z,94615.78
2022-11-22T21:26:24.586Z,94630.41
2022-11-22T21:28:53.436Z,94618.41
2022-11-22T21:31:22.691Z,94622.28
2022-11-22T21:33:51.073Z,94630.59
2022-11-22T21:36:21.232Z,94629.34
2022-11-22T21:38:49.186Z,94631.16
2022-11-22T21:44:09.529Z,94609.88
2022-11-22T21:46:37.274Z,94619.50
2022-11-22T21:49:04.998Z,94610.22
2022-11-22T21:51:34.113Z,94630.50
2022-11-22T21:54:03.161Z,94625.81
2022-11-22T21:56:33.869Z,94636.50
2022-11-22T21:59:01.688Z,94632.06
2022-11-22T22:01:29.544Z,94632.59
2022-11-22T22:03:57.358Z,94631.03
2022-11-22T22:06:25.120Z,94631.53
2022-11-22T22:08:54.380Z,94632.59
2022-11-22T22:11:22.173Z,94632.56
2022-11-22T22:13:49.950Z,94612.53
2022-11-22T22:16:22.758Z,94632.31
2022-11-22T22:18:51.368Z,94629.44
2022-11-22T22:21:20.400Z,94633.31
2022-11-22T22:23:48.135Z,94635.09
2022-11-22T22:26:18.508Z,94635.63
2022-11-22T22:28:47.251Z,94576.84
2022-11-22T22:31:17.392Z,94633.00
2022-11-22T22:33:46.757Z,94646.00
2022-11-22T22:36:15.013Z,94643.66
2022-11-22T22:38:42.870Z,94644.41
2022-11-22T22:41:12.880Z,94646.50
2022-11-22T22:43:43.684Z,94647.53
2022-11-22T22:46:13.119Z,94649.88
2022-11-22T22:48:41.599Z,94648.56
2022-11-22T22:51:12.236Z,94652.19
2022-11-22T22:53:40.135Z,94650.91
2022-11-22T22:56:08.708Z,94497.81
2022-11-22T22:58:36.846Z,94643.66
2022-11-22T23:01:07.326Z,94662.06
2022-11-22T23:03:35.907Z,94663.13
2022-11-22T23:06:08.440Z,94581.59
2022-11-22T23:08:36.316Z,94666.34
2022-11-22T23:11:06.402Z,94680.16
2022-11-22T23:13:35.669Z,94674.94
2022-11-22T23:16:03.440Z,94677.25
2022-11-22T23:18:35.405Z,94666.06
2022-11-22T23:21:05.007Z,94677.94
2022-11-22T23:23:32.708Z,94673.53
2022-11-22T23:26:02.952Z,94639.19
2022-11-22T23:28:30.959Z,94499.88
2022-11-22T23:31:05.111Z,94693.41
2022-11-22T23:33:34.401Z,94695.38
2022-11-22T23:36:04.031Z,94696.38
2022-11-22T23:38:31.833Z,94691.69
2022-11-22T23:40:59.688Z,94696.69
2022-11-22T23:43:27.535Z,94678.69
2022-11-22T23:45:55.237Z,94696.63
2022-11-22T23:48:22.989Z,94697.13
2022-11-22T23:50:52.569Z,94689.09
2022-11-22T23:53:20.271Z,94698.69
2022-11-22T23:55:47.928Z,94695.34
2022-11-22T23:58:15.572Z,94680.19
